createdAt,value
2023-02-03T10:41:05.913Z,98428.59
2023-02-03T10:43:53.246Z,98426.68
2023-02-03T10:46:29.878Z,98422.52
2023-02-03T10:48:58.116Z,98421.06
2023-02-03T10:51:32.042Z,98421.16
2023-02-03T10:54:00.179Z,98422.29
2023-02-03T10:56:32.805Z,98423.61
2023-02-03T10:59:00.841Z,98423.13
2023-02-03T11:01:38.896Z,98419.70
2023-02-03T11:04:09.983Z,98420.19
2023-02-03T11:06:38.660Z,98416.52
2023-02-03T11:09:22.466Z,98413.58
2023-02-03T11:11:50.334Z,98410.53
2023-02-03T11:14:20.513Z,98410.65
2023-02-03T11:16:49.520Z,98406.65
2023-02-03T11:19:19.252Z,98404.31
2023-02-03T11:21:54.442Z,98406.77
2023-02-03T11:24:47.622Z,98402.68
2023-02-03T11:27:16.886Z,98402.52
2023-02-03T11:29:46.533Z,98403.96
2023-02-03T11:32:43.695Z,98407.02
2023-02-03T11:35:16.369Z,98409.10
2023-02-03T11:37:45.727Z,98407.06
2023-02-03T11:40:18.202Z,98404.89
2023-02-03T11:42:49.005Z,98403.45
2023-02-03T11:45:50.392Z,98404.48
2023-02-03T11:48:27.776Z,98397.73
2023-02-03T11:51:08.430Z,98398.89
2023-02-03T11:53:56.468Z,98395.80
2023-02-03T11:56:27.852Z,98395.05
2023-02-03T11:59:08.313Z,98396.51
2023-02-03T12:02:00.995Z,98395.33
2023-02-03T12:04:32.616Z,98394.58
2023-02-03T12:07:08.557Z,98394.41
2023-02-03T12:09:48.405Z,98392.83
2023-02-03T12:12:31.527Z,98392.08
2023-02-03T12:15:28.403Z,98393.15
2023-02-03T12:18:11.790Z,98388.88
2023-02-03T12:21:12.501Z,98392.61
2023-02-03T12:23:41.503Z,98386.86
2023-02-03T12:26:21.805Z,98390.86
2023-02-03T12:28:55.770Z,98397.93
2023-02-03T12:31:35.900Z,98395.11
2023-02-03T12:34:13.462Z,98399.87
2023-02-03T12:37:06.136Z,98402.63
2023-02-03T12:39:41.871Z,98404.24
2023-02-03T12:42:25.780Z,98404.67
2023-02-03T12:45:32.275Z,98402.74
2023-02-03T12:48:07.002Z,98399.60
2023-02-03T12:50:40.817Z,98403.24
2023-02-03T12:53:16.749Z,98413.77
2023-02-03T12:55:51.223Z,98408.23
2023-02-03T12:58:26.944Z,98405.83
2023-02-03T13:01:17.759Z,98400.14
2023-02-03T13:04:09.018Z,98405.25
2023-02-03T13:06:57.494Z,98401.56
2023-02-03T13:09:31.010Z,98411.46
2023-02-03T13:12:09.057Z,98406.36
2023-02-03T13:14:52.188Z,98400.52
2023-02-03T13:17:31.698Z,98405.14
2023-02-03T13:20:05.887Z,98401.30
2023-02-03T13:22:34.269Z,98399.06
2023-02-03T13:25:29.445Z,98392.89
2023-02-03T13:28:03.802Z,98402.30
2023-02-03T13:30:54.155Z,98403.00
2023-02-03T13:33:28.431Z,98401.78
2023-02-03T13:36:19.860Z,98404.45
2023-02-03T13:38:59.864Z,98399.55
2023-02-03T13:41:39.795Z,98405.71
2023-02-03T13:44:12.779Z,98408.92
2023-02-03T13:46:41.180Z,98407.31
2023-02-03T13:49:09.191Z,98405.50
2023-02-03T13:51:39.372Z,98407.31
2023-02-03T13:54:13.574Z,98410.14
2023-02-03T13:56:59.900Z,98409.83
2023-02-03T13:59:44.553Z,98411.20
2023-02-03T14:02:21.598Z,98408.33
2023-02-03T14:04:54.434Z,98408.77
2023-02-03T14:07:38.756Z,98410.36
2023-02-03T14:10:13.185Z,98399.33
2023-02-03T14:12:50.641Z,98400.08
2023-02-03T14:15:21.252Z,98403.31
2023-02-03T14:17:52.277Z,98406.20
2023-02-03T14:20:26.745Z,98406.30
2023-02-03T14:22:57.648Z,98407.80
2023-02-03T14:25:27.344Z,98404.59
2023-02-03T14:28:02.916Z,98402.52
2023-02-03T14:30:31.166Z,98402.84
2023-02-03T14:33:05.279Z,98401.62
2023-02-03T14:35:34.142Z,98399.42
2023-02-03T14:38:06.936Z,98401.30
2023-02-03T14:40:54.053Z,98397.30
2023-02-03T14:43:28.020Z,98396.02
2023-02-03T14:46:29.914Z,98398.69
2023-02-03T14:49:16.182Z,98397.46
2023-02-03T14:51:54.548Z,98397.25
2023-02-03T14:54:35.912Z,98397.77
2023-02-03T14:57:23.551Z,98400.50
2023-02-03T15:00:02.360Z,98403.33
2023-02-03T15:02:31.370Z,98407.85
2023-02-03T15:05:24.321Z,98401.89
2023-02-03T15:07:55.564Z,98408.06
2023-02-03T15:10:44.230Z,98402.30
2023-02-03T15:13:29.684Z,98403.85
2023-02-03T15:15:59.285Z,98407.16
2023-02-03T15:18:40.563Z,98405.92
2023-02-03T15:21:18.651Z,98405.55
2023-02-03T15:23:48.479Z,98404.98
2023-02-03T15:26:24.638Z,98403.70
2023-02-03T15:29:01.114Z,98404.23
2023-02-03T15:31:35.689Z,98404.77
2023-02-03T15:34:12.707Z,98410.36
2023-02-03T15:36:48.262Z,98412.53
2023-02-03T15:39:39.041Z,98417.70
2023-02-03T15:42:10.133Z,98417.60
2023-02-03T15:44:49.318Z,98416.97
2023-02-03T15:47:30.156Z,98413.55
2023-02-03T15:50:25.742Z,98419.20
2023-02-03T15:52:54.743Z,98418.78
2023-02-03T15:55:27.227Z,98420.80
2023-02-03T15:57:55.168Z,98423.68
2023-02-03T16:00:32.064Z,98417.23
2023-02-03T16:03:00.823Z,98420.42
2023-02-03T16:05:32.635Z,98424.69
2023-02-03T16:08:36.838Z,98417.13
2023-02-03T16:11:40.742Z,98415.15
2023-02-03T16:14:11.621Z,98411.73
2023-02-03T16:17:04.273Z,98415.14
2023-02-03T16:19:40.298Z,98413.45
2023-02-03T16:22:31.654Z,98417.81
2023-02-03T16:25:13.843Z,98419.32
2023-02-03T16:27:44.677Z,98418.23
2023-02-03T16:30:32.168Z,98419.24
2023-02-03T16:33:28.864Z,98420.05
2023-02-03T16:36:17.336Z,98417.52
2023-02-03T16:39:07.413Z,98415.67
2023-02-03T16:41:55.477Z,98413.27
2023-02-03T16:44:42.112Z,98409.81
2023-02-03T16:47:43.961Z,98410.63
2023-02-03T16:50:39.154Z,98411.21
2023-02-03T16:53:12.818Z,98410.20
2023-02-03T16:55:41.721Z,98409.19
2023-02-03T16:58:11.986Z,98409.04
2023-02-03T17:00:42.046Z,98410.69
2023-02-03T17:03:17.346Z,98410.44
2023-02-03T17:05:48.599Z,98414.00
2023-02-03T17:08:18.179Z,98412.13
2023-02-03T17:10:48.048Z,98409.21
2023-02-03T17:13:17.409Z,98411.09
2023-02-03T17:15:50.001Z,98406.57
2023-02-03T17:18:19.226Z,98405.13
2023-02-03T17:20:47.572Z,98409.55
2023-02-03T17:23:16.681Z,98408.39
2023-02-03T17:25:46.055Z,98405.71
2023-02-03T17:28:14.457Z,98405.50
2023-02-03T17:30:42.768Z,98403.63
2023-02-03T17:33:13.971Z,98402.30
2023-02-03T17:35:43.107Z,98404.80
2023-02-03T17:38:12.386Z,98402.40
2023-02-03T17:54:31.909Z,98413.93
2023-02-03T17:56:59.826Z,98410.69
2023-02-03T17:59:28.044Z,98412.11
2023-02-03T18:01:55.978Z,98410.73
2023-02-03T18:04:23.943Z,98405.77
2023-02-03T18:06:53.450Z,98409.47
2023-02-03T18:09:22.282Z,98408.10
2023-02-03T18:11:50.651Z,98410.48
2023-02-03T18:14:18.720Z,98408.75
2023-02-03T18:16:46.986Z,98409.75
2023-02-03T18:19:15.977Z,98408.05
2023-02-03T18:21:44.126Z,98408.96
2023-02-03T18:24:13.255Z,98404.59
2023-02-03T18:26:49.333Z,98402.52
2023-02-03T18:29:17.633Z,98400.80
2023-02-03T18:31:46.409Z,98398.36
2023-02-03T18:34:15.870Z,98396.34
2023-02-03T18:36:44.544Z,98400.02
2023-02-03T18:39:14.546Z,98399.05
2023-02-03T18:41:42.487Z,98397.14
2023-02-03T18:44:10.726Z,98394.26
2023-02-03T18:46:38.804Z,98384.35
2023-02-03T18:49:09.538Z,98382.81
2023-02-03T18:51:37.689Z,98384.88
2023-02-03T18:54:05.905Z,98382.43
2023-02-03T18:56:37.213Z,98386.16
2023-02-03T18:59:07.453Z,98385.26
2023-02-03T19:01:36.573Z,98385.15
2023-02-03T19:04:05.239Z,98386.27
2023-02-03T19:06:34.115Z,98387.55
2023-02-03T19:09:02.805Z,98388.77
2023-02-03T19:11:34.255Z,98384.14
2023-02-03T19:14:02.645Z,98380.35
2023-02-03T19:16:32.337Z,98378.54
2023-02-03T19:19:00.902Z,98379.28
2023-02-03T19:21:29.117Z,98377.37
2023-02-03T19:23:57.358Z,98373.21
2023-02-03T19:26:25.258Z,98370.07
2023-02-03T19:28:56.126Z,98371.30
2023-02-03T19:31:24.179Z,98374.86
2023-02-03T19:33:52.256Z,98369.48
2023-02-03T19:36:20.513Z,98373.31
2023-02-03T19:38:48.483Z,98374.48
2023-02-03T19:41:16.373Z,98373.80
2023-02-03T19:43:44.378Z,98373.59
2023-02-03T19:46:13.629Z,98371.73
2023-02-03T19:48:41.894Z,98372.36
2023-02-03T19:51:12.325Z,98373.52
2023-02-03T19:53:40.707Z,98373.74
2023-02-03T19:56:08.978Z,98371.92
2023-02-03T19:58:37.020Z,98374.75
2023-02-03T20:01:06.282Z,98373.14
2023-02-03T20:03:34.546Z,98369.59
2023-02-03T20:06:02.800Z,98372.63
2023-02-03T20:08:50.842Z,98372.09
2023-02-03T20:11:20.494Z,98372.83
2023-02-03T20:13:49.342Z,98370.01
2023-02-03T20:16:17.638Z,98372.14
2023-02-03T20:18:46.377Z,98371.45
2023-02-03T20:21:14.679Z,98368.52
2023-02-03T20:23:42.660Z,98366.06
2023-02-03T20:26:10.922Z,98360.58
2023-02-03T20:28:41.140Z,98363.30
2023-02-03T20:31:09.992Z,98366.06
2023-02-03T20:33:38.314Z,98367.45
2023-02-03T20:36:07.050Z,98368.52
2023-02-03T20:38:35.947Z,98364.37
2023-02-03T20:41:03.911Z,98363.61
2023-02-03T20:43:32.132Z,98358.51
2023-02-03T20:46:00.406Z,98356.80
2023-02-03T20:48:28.547Z,98357.82
2023-02-03T20:50:56.856Z,98362.27
2023-02-03T20:53:26.121Z,98368.83
2023-02-03T20:55:59.161Z,98370.23
2023-02-03T20:58:29.164Z,98365.75
2023-02-03T21:01:00.693Z,98363.48
2023-02-03T21:03:47.634Z,98362.94
2023-02-03T21:06:19.962Z,98365.77
2023-02-03T21:08:48.998Z,98367.53
2023-02-03T21:11:19.411Z,98367.48
2023-02-03T21:13:48.221Z,98371.27
2023-02-03T21:16:21.398Z,98367.69
2023-02-03T21:18:55.213Z,98367.59
2023-02-03T21:21:46.697Z,98364.65
2023-02-03T21:24:23.715Z,98366.99
2023-02-03T21:26:52.062Z,98364.77
2023-02-03T21:29:32.145Z,98361.95
2023-02-03T21:32:00.628Z,98359.77
2023-02-03T21:34:30.435Z,98359.02
2023-02-03T21:37:11.311Z,98352.93
2023-02-03T21:39:39.139Z,98354.64
2023-02-03T21:42:41.752Z,98359.23
2023-02-03T21:45:17.157Z,98358.95
2023-02-03T21:47:46.295Z,98361.73
2023-02-03T21:50:40.873Z,98363.00
2023-02-03T21:53:08.918Z,98359.70
2023-02-03T21:55:37.480Z,98359.70
2023-02-03T21:58:22.213Z,98359.60
2023-02-03T22:00:54.277Z,98359.81
2023-02-03T22:03:26.845Z,98358.20
2023-02-03T22:06:35.590Z,98358.47
2023-02-03T22:09:03.562Z,98355.75
2023-02-03T22:11:33.323Z,98361.35
2023-02-03T22:14:02.841Z,98360.55
2023-02-03T22:16:31.122Z,98361.35
2023-02-03T22:18:59.005Z,98360.71
2023-02-03T22:21:28.059Z,98358.90
2023-02-03T22:23:55.951Z,98359.21
2023-02-03T22:26:24.125Z,98355.23
2023-02-03T22:28:52.099Z,98357.06
2023-02-03T22:31:20.509Z,98356.70
2023-02-03T22:33:48.832Z,98356.21
2023-02-03T22:36:17.006Z,98356.16
2023-02-03T22:38:45.005Z,98354.56
2023-02-03T22:41:13.183Z,98361.11
2023-02-03T22:43:41.606Z,98361.91
2023-02-03T22:48:06.469Z,98358.75
2023-02-03T22:50:36.392Z,98355.95
2023-02-03T22:53:06.087Z,98356.70
2023-02-03T22:55:34.256Z,98360.01
2023-02-03T22:58:02.184Z,98356.90
2023-02-03T23:00:30.366Z,98355.68
2023-02-03T23:02:59.211Z,98353.28
2023-02-03T23:05:27.201Z,98350.05
2023-02-03T23:07:56.241Z,98350.67
2023-02-03T23:10:25.666Z,98348.38
2023-02-03T23:12:54.268Z,98348.85
2023-02-03T23:15:22.189Z,98350.30
2023-02-03T23:17:50.238Z,98352.94
2023-02-03T23:20:18.858Z,98356.63
2023-02-03T23:22:47.870Z,98356.23
2023-02-03T23:25:16.018Z,98353.27
2023-02-03T23:27:43.918Z,98352.08
2023-02-03T23:30:13.862Z,98351.92
2023-02-03T23:32:42.603Z,98349.04
2023-02-03T23:35:29.317Z,98350.85
2023-02-03T23:37:57.480Z,98347.28
2023-02-03T23:40:25.347Z,98347.70
2023-02-03T23:42:53.331Z,98347.17
2023-02-03T23:45:21.324Z,98350.64
2023-02-03T23:47:49.869Z,98351.87
2023-02-03T23:50:19.108Z,98352.73
2023-02-03T23:52:47.613Z,98353.77
2023-02-03T23:55:17.056Z,98352.83
2023-02-03T23:57:45.310Z,98356.24
